createdAt,value
2018-08-19T00:01:44.286Z,15.10
2018-08-19T00:05:08.406Z,15.10
2018-08-19T00:08:12.821Z,15.20
2018-08-19T00:11:17.343Z,15.20
2018-08-19T00:14:31.126Z,15.20
2018-08-19T00:17:35.587Z,15.10
2018-08-19T00:20:40.352Z,15.10
2018-08-19T00:23:49.737Z,15.10
2018-08-19T00:26:54.547Z,15.10
2018-08-19T00:29:58.743Z,15.10
2018-08-19T00:33:03.320Z,15.10
2018-08-19T00:36:26.559Z,15.00
2018-08-19T00:39:30.973Z,15.00
2018-08-19T00:42:35.196Z,14.90
2018-08-19T00:45:39.467Z,14.80
2018-08-19T00:48:43.657Z,14.80
2018-08-19T00:51:53.077Z,14.80
2018-08-19T00:54:57.191Z,14.80
2018-08-19T00:58:01.585Z,14.70
2018-08-19T01:01:06.181Z,14.60
2018-08-19T01:04:11.909Z,14.60
2018-08-19T01:07:16.300Z,14.50
2018-08-19T01:10:21.379Z,14.50
2018-08-19T01:13:28.544Z,14.50
2018-08-19T01:16:33.344Z,14.40
2018-08-19T01:19:38.261Z,14.40
2018-08-19T01:22:43.703Z,14.40
2018-08-19T01:25:48.382Z,14.50
2018-08-19T01:28:55.076Z,14.40
2018-08-19T01:32:04.025Z,14.40
2018-08-19T01:35:08.465Z,14.20
2018-08-19T01:38:13.050Z,14.20
2018-08-19T01:41:17.370Z,14.20
2018-08-19T01:44:22.091Z,14.10
2018-08-19T01:47:26.404Z,14.10
2018-08-19T01:50:31.131Z,14.10
2018-08-19T01:53:35.501Z,14.20
2018-08-19T01:56:40.239Z,14.20
2018-08-19T01:59:44.637Z,14.20
2018-08-19T02:03:10.498Z,14.00
2018-08-19T02:06:14.752Z,13.80
2018-08-19T02:09:20.471Z,13.70
2018-08-19T02:12:26.923Z,13.70
2018-08-19T02:15:32.451Z,13.80
2018-08-19T02:18:36.665Z,13.70
2018-08-19T02:21:42.342Z,13.50
2018-08-19T02:24:46.764Z,13.40
2018-08-19T02:27:50.925Z,13.20
2018-08-19T02:31:01.370Z,13.10
2018-08-19T02:34:05.758Z,13.10
2018-08-19T02:37:15.419Z,13.20
2018-08-19T02:40:24.324Z,13.20
2018-08-19T02:43:28.823Z,13.20
2018-08-19T02:46:33.754Z,13.20
2018-08-19T02:49:38.058Z,13.20
2018-08-19T02:52:42.401Z,13.20
2018-08-19T02:55:46.838Z,13.20
2018-08-19T02:58:51.510Z,13.20
2018-08-19T03:01:55.856Z,13.20
2018-08-19T03:05:01.553Z,13.10
2018-08-19T03:08:06.070Z,12.90
2018-08-19T03:11:10.429Z,12.80
2018-08-19T03:14:14.633Z,12.80
2018-08-19T03:17:19.172Z,12.90
2018-08-19T03:20:23.612Z,12.90
2018-08-19T03:23:27.863Z,13.10
2018-08-19T03:26:32.710Z,13.10
2018-08-19T03:29:41.173Z,13.00
2018-08-19T03:32:51.076Z,12.80
2018-08-19T03:35:55.304Z,12.70
2018-08-19T03:39:09.819Z,12.50
2018-08-19T03:42:15.840Z,12.60
2018-08-19T03:45:21.129Z,12.70
2018-08-19T03:48:25.514Z,12.60
2018-08-19T03:51:29.889Z,12.50
2018-08-19T03:54:34.323Z,12.40
2018-08-19T03:57:38.864Z,12.50
2018-08-19T04:00:45.395Z,12.60
2018-08-19T04:03:49.722Z,12.60
2018-08-19T04:06:53.962Z,12.70
2018-08-19T04:09:58.101Z,12.60
2018-08-19T04:13:02.378Z,12.50
2018-08-19T04:16:08.875Z,12.50
2018-08-19T04:19:13.478Z,12.40
2018-08-19T04:22:17.647Z,12.50
2018-08-19T04:25:34.762Z,12.50
2018-08-19T04:28:40.445Z,12.50
2018-08-19T04:31:44.758Z,12.40
2018-08-19T04:34:49.296Z,12.30
2018-08-19T04:37:53.560Z,12.30
2018-08-19T04:41:00.285Z,12.30
2018-08-19T04:44:04.804Z,12.30
2018-08-19T04:47:46.136Z,12.30
2018-08-19T04:50:53.135Z,12.30
2018-08-19T04:53:57.775Z,12.40
2018-08-19T04:57:02.016Z,12.60
2018-08-19T05:00:07.411Z,12.60
2018-08-19T05:03:12.604Z,12.50
2018-08-19T05:06:18.135Z,12.50
2018-08-19T05:09:22.660Z,12.70
2018-08-19T05:12:27.477Z,12.70
2018-08-19T05:15:32.650Z,12.60
2018-08-19T05:18:37.288Z,12.70
2018-08-19T05:21:41.976Z,12.80
2018-08-19T05:24:46.836Z,12.90
2018-08-19T05:27:55.649Z,12.80
2018-08-19T05:31:00.287Z,12.90
2018-08-19T05:34:05.120Z,12.90
2018-08-19T05:37:09.983Z,12.90
2018-08-19T05:40:14.428Z,13.10
2018-08-19T05:43:18.696Z,13.20
2018-08-19T05:46:23.364Z,13.30
2018-08-19T05:49:29.620Z,13.40
2018-08-19T05:52:34.425Z,13.50
2018-08-19T05:55:39.138Z,13.70
2018-08-19T05:58:43.623Z,13.80
2018-08-19T06:01:48.328Z,14.00
2018-08-19T06:04:52.957Z,14.10
2018-08-19T06:08:01.994Z,14.30
2018-08-19T06:11:06.568Z,14.40
2018-08-19T06:14:11.280Z,14.50
2018-08-19T06:17:15.916Z,14.70
2018-08-19T06:20:20.527Z,14.90
2018-08-19T06:23:25.063Z,15.10
2018-08-19T06:26:34.034Z,15.20
2018-08-19T06:29:52.515Z,15.50
2018-08-19T06:32:56.976Z,15.70
2018-08-19T06:36:01.756Z,16.60
2018-08-19T06:39:08.337Z,18.00
2018-08-19T06:42:13.690Z,18.90
2018-08-19T06:45:18.529Z,19.60
2018-08-19T06:48:23.241Z,21.10
2018-08-19T06:51:28.033Z,22.60
2018-08-19T06:54:32.635Z,23.60
2018-08-19T06:57:37.372Z,24.40
2018-08-19T07:00:42.269Z,25.40
2018-08-19T07:03:51.446Z,25.50
2018-08-19T07:06:56.132Z,25.70
2018-08-19T07:10:00.915Z,26.80
2018-08-19T07:13:07.626Z,27.20
2018-08-19T07:16:12.197Z,27.40
2018-08-19T07:19:17.299Z,28.20
2018-08-19T07:22:22.863Z,28.50
2018-08-19T07:25:27.371Z,26.20
2018-08-19T07:28:32.865Z,26.60
2018-08-19T07:31:37.613Z,26.20
2018-08-19T07:34:42.271Z,25.50
2018-08-19T07:37:47.013Z,26.20
2018-08-19T07:40:51.665Z,25.90
2018-08-19T07:43:56.767Z,25.60
2018-08-19T07:47:01.494Z,25.40
2018-08-19T07:50:06.966Z,24.90
2018-08-19T07:53:11.331Z,25.50
2018-08-19T07:56:15.947Z,25.80
2018-08-19T07:59:20.338Z,25.70
2018-08-19T08:02:27.268Z,25.90
2018-08-19T08:05:36.598Z,28.60
2018-08-19T08:08:40.869Z,28.90
2018-08-19T08:11:45.454Z,28.10
2018-08-19T08:14:52.187Z,29.00
2018-08-19T08:17:57.692Z,29.00
2018-08-19T08:21:12.520Z,28.20
2018-08-19T08:24:17.373Z,27.60
2018-08-19T08:27:23.157Z,28.00
2018-08-19T08:30:29.708Z,29.10
2018-08-19T08:33:39.748Z,28.50
2018-08-19T08:36:44.881Z,28.70
2018-08-19T08:40:11.917Z,30.20
2018-08-19T08:43:16.628Z,31.10
2018-08-19T08:46:21.621Z,30.50
2018-08-19T08:49:27.404Z,29.60
2018-08-19T08:52:32.252Z,29.30
2018-08-19T08:55:36.705Z,32.20
2018-08-19T08:58:41.217Z,32.30
2018-08-19T09:01:46.163Z,34.80
2018-08-19T09:04:52.130Z,35.80
2018-08-19T09:07:58.848Z,35.10
2018-08-19T09:11:04.955Z,36.00
2018-08-19T09:14:10.209Z,37.40
2018-08-19T09:17:14.728Z,38.80
2018-08-19T09:20:20.194Z,38.00
2018-08-19T09:24:54.357Z,37.60
2018-08-19T09:27:58.795Z,34.90
2018-08-19T09:31:03.222Z,33.00
2018-08-19T09:34:08.384Z,34.10
2018-08-19T09:37:13.649Z,36.30
2018-08-19T09:40:18.380Z,37.90
2018-08-19T09:43:23.032Z,36.40
2018-08-19T09:46:27.623Z,36.00
2018-08-19T09:49:32.728Z,33.30
2018-08-19T09:52:37.437Z,32.20
2018-08-19T09:55:47.954Z,34.50
2018-08-19T09:58:57.811Z,36.00
2018-08-19T10:02:05.987Z,37.00
2018-08-19T10:05:14.335Z,36.60
2018-08-19T10:08:21.582Z,37.30
2018-08-19T10:11:26.059Z,37.00
2018-08-19T10:14:31.355Z,38.20
2018-08-19T10:17:36.068Z,38.20
2018-08-19T10:20:40.632Z,38.00
2018-08-19T10:23:45.298Z,36.30
2018-08-19T10:26:50.308Z,36.90
2018-08-19T10:29:54.881Z,36.40
2018-08-19T10:33:06.500Z,36.30
2018-08-19T10:36:11.136Z,37.40
2018-08-19T10:39:16.871Z,38.00
2018-08-19T10:42:24.703Z,38.40
2018-08-19T10:45:29.425Z,37.70
2018-08-19T10:48:34.368Z,36.60
2018-08-19T10:51:41.581Z,36.30
2018-08-19T10:54:47.096Z,35.70
2018-08-19T10:57:52.530Z,35.40
2018-08-19T11:00:57.469Z,35.90
2018-08-19T11:04:02.117Z,36.40
2018-08-19T11:07:06.787Z,36.10
2018-08-19T11:10:25.289Z,36.80
2018-08-19T11:13:30.103Z,36.60
2018-08-19T11:16:35.319Z,37.10
2018-08-19T11:19:39.699Z,37.10
2018-08-19T11:22:44.053Z,36.10
2018-08-19T11:25:49.132Z,35.80
2018-08-19T11:28:56.087Z,35.80
2018-08-19T11:32:01.890Z,35.40
2018-08-19T11:35:07.277Z,35.30
2018-08-19T11:38:12.103Z,35.60
2018-08-19T11:41:19.341Z,34.30
2018-08-19T11:44:24.312Z,33.60
2018-08-19T11:47:28.942Z,33.20
2018-08-19T11:50:34.293Z,32.90
2018-08-19T11:53:40.573Z,32.20
2018-08-19T11:57:07.680Z,31.70
2018-08-19T12:00:12.421Z,31.50
2018-08-19T12:03:17.022Z,31.40
2018-08-19T12:06:22.352Z,31.00
2018-08-19T12:09:26.642Z,30.90
2018-08-19T12:12:45.915Z,30.80
2018-08-19T12:15:50.216Z,30.80
2018-08-19T12:18:54.630Z,30.50
2018-08-19T12:21:59.911Z,30.40
2018-08-19T12:25:04.993Z,30.40
2018-08-19T12:28:09.376Z,30.30
2018-08-19T12:31:15.505Z,30.30
2018-08-19T12:34:20.307Z,30.10
2018-08-19T12:37:26.450Z,30.10
2018-08-19T12:40:30.822Z,30.10
2018-08-19T12:43:36.307Z,30.10
2018-08-19T12:46:45.916Z,30.10
2018-08-19T12:49:55.849Z,30.00
2018-08-19T12:53:01.776Z,29.90
2018-08-19T12:56:06.889Z,29.80
2018-08-19T12:59:11.816Z,29.70
2018-08-19T13:02:16.857Z,29.70
2018-08-19T13:05:21.895Z,29.70
2018-08-19T13:08:27.202Z,29.60
2018-08-19T13:11:32.336Z,29.60
2018-08-19T13:14:36.814Z,29.60
2018-08-19T13:17:41.629Z,29.60
2018-08-19T13:20:46.733Z,29.60
2018-08-19T13:23:51.437Z,29.60
2018-08-19T13:26:56.715Z,29.70
2018-08-19T13:30:01.463Z,29.70
2018-08-19T13:33:06.462Z,29.60
2018-08-19T13:36:11.483Z,29.70
2018-08-19T13:39:15.865Z,29.60
2018-08-19T13:42:20.490Z,29.60
2018-08-19T13:45:27.033Z,29.60
2018-08-19T13:48:32.297Z,29.70
2018-08-19T13:51:37.527Z,29.70
2018-08-19T13:55:14.896Z,29.70
2018-08-19T13:58:19.199Z,29.70
2018-08-19T14:01:23.488Z,29.80
2018-08-19T14:04:27.955Z,29.60
2018-08-19T14:07:33.247Z,29.60
2018-08-19T14:10:37.423Z,29.70
2018-08-19T14:13:41.774Z,29.80
2018-08-19T14:16:46.149Z,29.70
2018-08-19T14:19:50.660Z,29.70
2018-08-19T14:22:55.598Z,29.80
2018-08-19T14:26:01.197Z,29.90
2018-08-19T14:29:06.441Z,30.00
2018-08-19T14:32:28.518Z,30.00
2018-08-19T14:35:33.307Z,30.00
2018-08-19T14:38:37.775Z,30.00
2018-08-19T14:41:42.856Z,29.90
2018-08-19T14:44:47.672Z,29.90
2018-08-19T14:47:53.345Z,29.90
2018-08-19T14:50:58.601Z,29.80
2018-08-19T14:54:15.256Z,29.80
2018-08-19T14:57:20.566Z,29.90
2018-08-19T15:00:25.332Z,29.90
2018-08-19T15:03:31.649Z,29.90
2018-08-19T15:06:35.906Z,29.90
2018-08-19T15:09:40.399Z,29.80
2018-08-19T15:12:45.627Z,29.80
2018-08-19T15:15:49.821Z,29.80
2018-08-19T15:18:54.312Z,29.70
2018-08-19T15:21:59.870Z,29.80
2018-08-19T15:25:04.054Z,29.80
2018-08-19T15:28:08.300Z,29.80
2018-08-19T15:31:17.991Z,29.70
2018-08-19T15:34:22.148Z,29.60
2018-08-19T15:37:26.317Z,29.60
2018-08-19T15:40:38.347Z,29.70
2018-08-19T15:43:42.848Z,29.70
2018-08-19T15:46:47.794Z,29.60
2018-08-19T15:50:04.417Z,29.60
2018-08-19T15:53:10.925Z,29.60
2018-08-19T15:56:15.273Z,29.50
2018-08-19T15:59:20.736Z,29.40
2018-08-19T16:02:25.360Z,29.50
2018-08-19T16:05:29.723Z,29.40
2018-08-19T16:08:34.394Z,29.30
2018-08-19T16:11:39.309Z,29.10
2018-08-19T16:14:43.681Z,29.00
2018-08-19T16:17:47.803Z,29.10
2018-08-19T16:21:06.823Z,29.00
2018-08-19T16:24:11.136Z,28.90
2018-08-19T16:27:15.388Z,28.80
2018-08-19T16:30:19.879Z,28.80
2018-08-19T16:33:24.126Z,28.80
2018-08-19T16:36:28.694Z,28.80
2018-08-19T16:39:32.868Z,28.70
2018-08-19T16:42:37.180Z,28.70
2018-08-19T16:45:41.344Z,28.70
2018-08-19T16:48:45.844Z,28.60
2018-08-19T16:51:50.012Z,28.50
2018-08-19T16:54:54.627Z,28.50
2018-08-19T16:57:59.301Z,28.50
2018-08-19T17:01:03.721Z,28.30
2018-08-19T17:04:08.000Z,28.30
2018-08-19T17:07:12.462Z,28.20
2018-08-19T17:10:16.806Z,28.10
2018-08-19T17:13:20.931Z,28.00
2018-08-19T17:16:25.699Z,28.10
2018-08-19T17:19:30.048Z,28.00
2018-08-19T17:22:35.424Z,27.90
2018-08-19T17:25:40.155Z,27.90
2018-08-19T17:28:44.554Z,27.80
2018-08-19T17:31:48.812Z,27.70
2018-08-19T17:34:53.527Z,27.60
2018-08-19T17:37:57.750Z,27.50
2018-08-19T17:41:02.562Z,27.40
2018-08-19T17:44:06.785Z,27.30
2018-08-19T17:47:10.971Z,27.30
2018-08-19T17:50:19.304Z,27.20
2018-08-19T17:53:23.772Z,27.20
2018-08-19T17:56:27.955Z,27.00
2018-08-19T17:59:32.192Z,27.00
2018-08-19T18:02:36.341Z,26.90
2018-08-19T18:05:42.245Z,26.90
2018-08-19T18:08:51.577Z,26.80
2018-08-19T18:12:03.989Z,26.70
2018-08-19T18:15:09.708Z,26.60
2018-08-19T18:18:14.061Z,26.40
2018-08-19T18:21:18.210Z,26.20
2018-08-19T18:24:22.389Z,26.10
2018-08-19T18:27:26.660Z,26.00
2018-08-19T18:30:30.866Z,25.80
2018-08-19T18:33:45.229Z,25.60
2018-08-19T18:36:49.432Z,25.50
2018-08-19T18:39:53.689Z,25.40
2018-08-19T18:42:58.059Z,25.20
2018-08-19T18:46:02.228Z,25.10
2018-08-19T18:49:20.981Z,24.80
2018-08-19T18:52:25.455Z,24.70
2018-08-19T18:55:29.777Z,24.40
2018-08-19T18:58:33.911Z,24.30
2018-08-19T19:01:38.116Z,24.30
2018-08-19T19:04:42.264Z,24.20
2018-08-19T19:07:46.602Z,24.10
2018-08-19T19:10:57.891Z,24.00
2018-08-19T19:14:06.626Z,23.80
2018-08-19T19:17:11.146Z,23.80
2018-08-19T19:20:15.615Z,23.60
2018-08-19T19:23:24.736Z,23.50
2018-08-19T19:26:34.317Z,23.30
2018-08-19T19:29:38.494Z,23.20
2018-08-19T19:32:42.761Z,22.90
2018-08-19T19:35:47.241Z,22.80
2018-08-19T19:38:58.337Z,22.70
2018-08-19T19:42:09.214Z,22.70
2018-08-19T19:45:13.414Z,22.60
2018-08-19T19:48:17.930Z,22.50
2018-08-19T19:51:23.308Z,22.30
2018-08-19T19:54:29.801Z,22.20
2018-08-19T19:57:34.391Z,22.10
2018-08-19T20:00:51.850Z,22.00
2018-08-19T20:03:56.404Z,21.90
2018-08-19T20:07:00.931Z,21.80
2018-08-19T20:10:06.467Z,21.60
2018-08-19T20:13:11.229Z,21.50
2018-08-19T20:16:15.422Z,21.40
2018-08-19T20:19:20.051Z,21.30
2018-08-19T20:22:24.235Z,21.20
2018-08-19T20:25:28.489Z,21.00
2018-08-19T20:28:33.236Z,20.90
2018-08-19T20:31:37.526Z,20.80
2018-08-19T20:34:42.572Z,20.70
2018-08-19T20:37:47.702Z,20.50
2018-08-19T20:40:52.822Z,20.40
2018-08-19T20:43:57.314Z,20.30
2018-08-19T20:47:01.464Z,20.20
2018-08-19T20:50:05.870Z,20.10
2018-08-19T20:53:10.532Z,19.90
2018-08-19T20:56:14.745Z,19.90
2018-08-19T20:59:26.126Z,19.80
2018-08-19T21:02:31.059Z,19.70
2018-08-19T21:05:35.384Z,19.60
2018-08-19T21:08:41.746Z,19.50
2018-08-19T21:11:46.328Z,19.50
2018-08-19T21:14:50.829Z,19.40
2018-08-19T21:17:54.996Z,19.30
2018-08-19T21:20:59.168Z,19.20
2018-08-19T21:24:03.555Z,19.10
2018-08-19T21:27:07.745Z,19.00
2018-08-19T21:30:12.131Z,19.00
2018-08-19T21:33:17.090Z,18.90
2018-08-19T21:36:21.390Z,19.00
2018-08-19T21:39:25.637Z,18.90
2018-08-19T21:42:34.597Z,18.90
2018-08-19T21:45:39.453Z,18.70
2018-08-19T21:48:44.157Z,18.50
2018-08-19T21:51:49.142Z,18.40
2018-08-19T21:54:53.465Z,18.50
2018-08-19T21:57:57.802Z,18.70
2018-08-19T22:01:03.223Z,18.70
2018-08-19T22:04:07.565Z,18.70
2018-08-19T22:07:12.097Z,18.80
2018-08-19T22:10:16.512Z,18.60
2018-08-19T22:13:21.657Z,18.50
2018-08-19T22:16:25.911Z,18.30
2018-08-19T22:19:30.901Z,18.20
2018-08-19T22:22:35.063Z,18.30
2018-08-19T22:25:39.306Z,18.30
2018-08-19T22:28:43.735Z,18.50
2018-08-19T22:31:50.666Z,18.60
2018-08-19T22:34:55.370Z,18.50
2018-08-19T22:38:03.149Z,18.40
2018-08-19T22:41:07.688Z,18.40
2018-08-19T22:44:12.176Z,18.20
2018-08-19T22:47:16.945Z,18.10
2018-08-19T22:50:22.295Z,18.10
2018-08-19T22:53:27.412Z,18.00
2018-08-19T22:56:31.672Z,18.00
2018-08-19T22:59:35.859Z,17.90
2018-08-19T23:02:40.356Z,17.80
2018-08-19T23:05:44.533Z,17.70
2018-08-19T23:08:48.699Z,17.70
2018-08-19T23:11:52.839Z,17.70
2018-08-19T23:15:08.341Z,17.70
2018-08-19T23:18:12.527Z,17.70
2018-08-19T23:21:16.717Z,17.60
2018-08-19T23:24:21.065Z,17.50
2018-08-19T23:27:25.242Z,17.40
2018-08-19T23:30:29.646Z,17.40
2018-08-19T23:33:34.364Z,17.30
2018-08-19T23:36:38.514Z,17.30
2018-08-19T23:39:42.901Z,17.30
2018-08-19T23:42:47.072Z,17.30
2018-08-19T23:45:51.185Z,17.30
2018-08-19T23:48:55.345Z,17.20
2018-08-19T23:51:59.540Z,17.10
2018-08-19T23:55:03.743Z,17.00
2018-08-19T23:58:08.180Z,17.00
